createdAt,value
2022-11-17T00:01:09.523Z,98594.56
2022-11-17T00:03:40.135Z,98581.03
2022-11-17T00:06:07.939Z,98586.19
2022-11-17T00:08:35.596Z,98569.13
2022-11-17T00:11:04.313Z,98576.75
2022-11-17T00:13:32.158Z,98586.84
2022-11-17T00:16:00.063Z,98575.91
2022-11-17T00:18:27.263Z,98551.41
2022-11-17T00:20:54.092Z,98559.84
2022-11-17T00:23:21.166Z,98549.06
2022-11-17T00:25:48.279Z,98549.59
2022-11-17T00:28:15.681Z,98556.16
2022-11-17T00:30:45.160Z,98555.41
2022-11-17T00:33:12.260Z,98566.00
2022-11-17T00:35:39.175Z,98555.97
2022-11-17T00:38:05.975Z,98561.50
2022-11-17T00:40:32.866Z,98519.28
2022-11-17T00:42:59.823Z,98553.22
2022-11-17T00:45:26.620Z,98550.06
2022-11-17T00:47:53.443Z,98551.66
2022-11-17T00:50:20.336Z,98545.91
2022-11-17T00:52:47.270Z,98539.84
2022-11-17T00:55:14.383Z,98527.84
2022-11-17T00:57:41.404Z,98530.72
2022-11-17T01:00:09.268Z,98541.09
2022-11-17T01:02:36.355Z,98550.63
2022-11-17T01:05:05.706Z,98547.50
2022-11-17T01:07:32.811Z,98546.00
2022-11-17T01:09:59.807Z,98528.06
2022-11-17T01:12:26.624Z,98546.13
2022-11-17T01:14:53.442Z,98527.19
2022-11-17T01:17:20.251Z,98530.47
2022-11-17T01:19:49.256Z,98523.38
2022-11-17T01:22:16.150Z,98534.59
2022-11-17T01:24:43.070Z,98537.75
2022-11-17T01:27:09.981Z,98529.59
2022-11-17T01:29:36.950Z,98525.19
2022-11-17T01:32:03.888Z,98527.75
2022-11-17T01:34:30.836Z,98533.94
2022-11-17T01:36:57.756Z,98545.66
2022-11-17T01:39:26.764Z,98523.25
2022-11-17T01:41:54.975Z,98529.91
2022-11-17T01:44:56.005Z,98523.84
2022-11-17T01:47:29.349Z,98525.69
2022-11-17T01:50:05.391Z,98519.69
2022-11-17T01:52:36.187Z,98533.06
2022-11-17T01:55:04.290Z,98522.16
2022-11-17T01:57:39.259Z,98530.88
2022-11-17T02:00:09.934Z,98511.84
2022-11-17T02:02:39.812Z,98533.66
2022-11-17T02:05:30.284Z,98503.34
2022-11-17T02:08:01.198Z,98516.78
2022-11-17T02:10:31.725Z,98494.22
2022-11-17T02:13:00.713Z,98528.81
2022-11-17T02:15:29.258Z,98513.69
2022-11-17T02:17:57.736Z,98512.34
2022-11-17T02:20:36.665Z,98502.31
2022-11-17T02:23:28.894Z,98510.59
2022-11-17T02:26:04.574Z,98494.56
2022-11-17T02:28:56.183Z,98515.63
2022-11-17T02:31:26.951Z,98505.59
2022-11-17T02:33:59.941Z,98499.56
2022-11-17T02:36:55.861Z,98516.63
2022-11-17T02:39:30.975Z,98482.38
2022-11-17T02:42:04.062Z,98495.56
2022-11-17T02:44:34.006Z,98482.28
2022-11-17T02:47:25.501Z,98487.88
2022-11-17T02:50:13.370Z,98480.69
2022-11-17T02:52:40.564Z,98526.03
2022-11-17T02:55:10.287Z,98465.59
2022-11-17T02:57:40.282Z,98483.84
2022-11-17T03:00:14.202Z,98490.78
2022-11-17T03:02:59.555Z,98489.72
2022-11-17T03:05:38.617Z,98488.88
2022-11-17T03:08:32.636Z,98500.00
2022-11-17T03:11:06.888Z,98473.09
2022-11-17T03:13:39.730Z,98485.13
2022-11-17T03:16:18.663Z,98481.53
2022-11-17T03:19:17.011Z,98483.53
2022-11-17T03:22:02.363Z,98480.59
2022-11-17T03:24:33.788Z,98481.53
2022-11-17T03:27:07.998Z,98478.50
2022-11-17T03:29:40.215Z,98485.47
2022-11-17T03:32:09.823Z,98483.47
2022-11-17T03:34:44.253Z,98467.50
2022-11-17T03:37:15.268Z,98460.31
2022-11-17T03:39:46.988Z,98453.81
2022-11-17T03:42:19.879Z,98461.66
2022-11-17T03:44:59.808Z,98468.44
2022-11-17T03:47:29.725Z,98454.38
2022-11-17T03:50:16.899Z,98450.47
2022-11-17T03:52:45.669Z,98450.72
2022-11-17T03:55:13.846Z,98447.78
2022-11-17T03:57:50.350Z,98457.22
2022-11-17T04:00:19.478Z,98453.38
2022-11-17T04:02:54.619Z,98435.22
2022-11-17T04:05:22.217Z,98450.31
2022-11-17T04:07:49.090Z,98440.53
2022-11-17T04:10:18.933Z,98431.75
2022-11-17T04:12:46.950Z,98453.22
2022-11-17T04:15:13.914Z,98432.59
2022-11-17T04:17:40.880Z,98430.78
2022-11-17T04:20:08.629Z,98427.00
2022-11-17T04:22:35.421Z,98421.13
2022-11-17T04:25:02.512Z,98431.19
2022-11-17T04:27:29.335Z,98435.31
2022-11-17T04:29:56.151Z,98449.94
2022-11-17T04:32:23.018Z,98434.25
2022-11-17T04:34:49.933Z,98442.34
2022-11-17T04:37:16.779Z,98437.63
2022-11-17T04:39:44.993Z,98442.09
2022-11-17T04:42:12.512Z,98440.41
2022-11-17T04:44:39.754Z,98425.34
2022-11-17T04:47:06.693Z,98426.31
2022-11-17T04:49:33.832Z,98431.97
2022-11-17T04:52:01.113Z,98429.41
2022-11-17T04:54:28.298Z,98425.56
2022-11-17T04:56:55.923Z,98400.16
2022-11-17T04:59:23.443Z,98416.31
2022-11-17T05:01:50.395Z,98428.72
2022-11-17T05:04:19.542Z,98422.22
2022-11-17T05:06:46.380Z,98420.66
2022-11-17T05:09:16.121Z,98414.97
2022-11-17T05:11:43.731Z,98421.94
2022-11-17T05:14:12.630Z,98420.19
2022-11-17T05:16:39.688Z,98390.84
2022-11-17T05:19:09.787Z,98419.47
2022-11-17T05:21:36.948Z,98393.97
2022-11-17T05:24:04.004Z,98420.09
2022-11-17T05:26:33.666Z,98405.91
2022-11-17T05:29:02.529Z,98414.59
2022-11-17T05:31:30.235Z,98402.78
2022-11-17T05:33:57.751Z,98411.00
2022-11-17T05:36:25.741Z,98418.38
2022-11-17T05:38:53.319Z,98394.66
2022-11-17T05:41:20.682Z,98400.50
2022-11-17T05:43:47.994Z,98395.03
2022-11-17T05:46:14.839Z,98413.34
2022-11-17T05:48:41.829Z,98388.31
2022-11-17T05:51:09.926Z,98384.72
2022-11-17T05:53:37.070Z,98373.09
2022-11-17T05:56:24.465Z,98405.09
2022-11-17T05:58:58.522Z,98379.25
2022-11-17T06:01:26.918Z,98392.25
2022-11-17T06:03:57.447Z,98399.38
2022-11-17T06:06:24.683Z,98386.75
2022-11-17T06:08:51.793Z,98384.44
2022-11-17T06:11:18.800Z,98373.09
2022-11-17T06:13:45.692Z,98375.19
2022-11-17T06:16:17.753Z,98390.69
2022-11-17T06:18:54.932Z,98373.38
2022-11-17T06:21:22.377Z,98371.59
2022-11-17T06:23:51.022Z,98367.13
2022-11-17T06:26:18.082Z,98371.19
2022-11-17T06:28:49.345Z,98361.47
2022-11-17T06:31:17.224Z,98360.31
2022-11-17T06:33:45.260Z,98352.06
2022-11-17T06:36:13.612Z,98356.19
2022-11-17T06:38:40.456Z,98351.81
2022-11-17T06:41:11.901Z,98346.81
2022-11-17T06:43:39.169Z,98337.13
2022-11-17T06:46:06.008Z,98336.22
2022-11-17T06:48:33.432Z,98350.22
2022-11-17T06:51:00.739Z,98328.19
2022-11-17T06:53:27.708Z,98317.06
2022-11-17T06:55:54.780Z,98321.00
2022-11-17T06:58:22.402Z,98313.38
2022-11-17T07:00:49.500Z,98313.22
2022-11-17T07:03:16.843Z,98326.50
2022-11-17T07:05:43.697Z,98317.78
2022-11-17T07:08:10.834Z,98294.91
2022-11-17T07:10:38.661Z,98318.59
2022-11-17T07:13:06.649Z,98321.59
2022-11-17T07:15:33.548Z,98300.16
2022-11-17T07:18:00.648Z,98296.16
2022-11-17T07:20:27.679Z,98298.38
2022-11-17T07:22:58.705Z,98314.22
2022-11-17T07:25:25.806Z,98311.66
2022-11-17T07:28:00.046Z,98295.19
2022-11-17T07:30:27.640Z,98302.63
2022-11-17T07:32:55.058Z,98291.72
2022-11-17T07:35:22.100Z,98299.47
2022-11-17T07:37:49.263Z,98312.97
2022-11-17T07:40:16.518Z,98280.00
2022-11-17T07:42:49.053Z,98283.91
2022-11-17T07:45:17.881Z,98259.22
2022-11-17T07:47:44.972Z,98278.63
2022-11-17T07:50:12.288Z,98279.03
2022-11-17T07:52:41.580Z,98277.88
2022-11-17T07:55:09.134Z,98295.97
2022-11-17T07:57:41.962Z,98276.13
2022-11-17T08:00:09.931Z,98281.75
2022-11-17T08:02:41.226Z,98254.44
2022-11-17T08:05:08.668Z,98282.81
2022-11-17T08:07:35.787Z,98269.47
2022-11-17T08:10:02.959Z,98267.78
2022-11-17T08:12:30.010Z,98241.72
2022-11-17T08:14:57.060Z,98252.22
2022-11-17T08:17:24.147Z,98267.94
2022-11-17T08:19:51.604Z,98254.09
2022-11-17T08:22:18.907Z,98247.34
2022-11-17T08:24:46.211Z,98242.97
2022-11-17T08:27:13.574Z,98237.50
2022-11-17T08:29:40.957Z,98230.38
2022-11-17T08:32:08.003Z,98248.25
2022-11-17T08:34:35.038Z,98237.34
2022-11-17T08:37:02.140Z,98233.88
2022-11-17T08:39:29.456Z,98225.66
2022-11-17T08:41:56.401Z,98230.25
2022-11-17T08:44:23.311Z,98230.75
2022-11-17T08:46:50.422Z,98220.97
2022-11-17T08:49:17.491Z,98214.72
2022-11-17T08:51:44.414Z,98203.75
2022-11-17T08:54:12.423Z,98231.78
2022-11-17T08:56:39.344Z,98210.53
2022-11-17T08:59:06.462Z,98204.84
2022-11-17T09:01:33.418Z,98209.13
2022-11-17T09:04:00.462Z,98203.53
2022-11-17T09:06:27.342Z,98194.75
2022-11-17T09:08:55.098Z,98219.38
2022-11-17T09:11:22.501Z,98188.47
2022-11-17T09:13:49.604Z,98210.13
2022-11-17T09:16:17.172Z,98193.31
2022-11-17T09:18:45.091Z,98191.69
2022-11-17T09:21:16.100Z,98174.06
2022-11-17T09:23:44.001Z,98178.00
2022-11-17T09:26:13.770Z,98177.69
2022-11-17T09:28:41.516Z,98171.53
2022-11-17T09:31:12.264Z,98164.69
2022-11-17T09:33:39.322Z,98159.19
2022-11-17T09:36:06.757Z,98154.84
2022-11-17T09:38:34.483Z,98167.28
2022-11-17T09:41:20.647Z,98159.28
2022-11-17T09:44:29.057Z,98183.56
2022-11-17T09:47:21.082Z,98141.66
2022-11-17T09:49:58.926Z,98146.72
2022-11-17T09:52:53.414Z,98168.34
2022-11-17T09:55:34.369Z,98155.81
2022-11-17T09:58:13.659Z,98166.53
2022-11-17T10:00:43.707Z,98156.38
2022-11-17T10:03:27.734Z,98150.72
2022-11-17T10:05:56.139Z,98147.56
2022-11-17T10:08:38.361Z,98157.69
2022-11-17T10:11:12.734Z,98165.38
2022-11-17T10:13:41.200Z,98160.28
2022-11-17T10:16:14.072Z,98140.22
2022-11-17T10:18:41.331Z,98135.44
2022-11-17T10:21:09.059Z,98131.63
2022-11-17T10:23:46.840Z,98120.84
2022-11-17T10:26:16.076Z,98144.81
2022-11-17T10:28:44.172Z,98115.31
2022-11-17T10:31:20.132Z,98120.53
2022-11-17T10:33:50.800Z,98122.31
2022-11-17T10:36:29.271Z,98125.88
2022-11-17T10:38:58.976Z,98109.69
2022-11-17T10:42:05.323Z,98112.22
2022-11-17T10:44:41.562Z,98119.16
2022-11-17T10:47:30.833Z,98110.91
2022-11-17T10:50:21.426Z,98104.72
2022-11-17T10:52:54.366Z,98104.66
2022-11-17T10:55:24.617Z,98115.06
2022-11-17T11:01:10.967Z,98116.69
2022-11-17T11:03:48.790Z,98094.78
2022-11-17T11:06:30.363Z,98099.28
2022-11-17T11:09:16.922Z,98113.13
2022-11-17T11:20:42.499Z,98113.81
2022-11-17T11:23:29.744Z,98088.44
2022-11-17T11:26:02.731Z,98099.97
2022-11-17T11:28:46.354Z,98098.53
2022-11-17T11:31:24.271Z,98094.59
2022-11-17T11:34:00.877Z,98100.53
2022-11-17T11:36:27.786Z,98089.06
2022-11-17T11:39:23.196Z,98096.28
2022-11-17T11:42:14.837Z,98077.25
2022-11-17T11:45:01.944Z,98076.38
2022-11-17T11:48:06.249Z,98070.69
2022-11-17T11:50:51.141Z,98083.72
2022-11-17T11:53:24.223Z,98073.91
2022-11-17T11:56:04.685Z,98090.78
2022-11-17T11:58:31.668Z,98086.00
2022-11-17T12:01:08.536Z,98081.81
2022-11-17T12:03:48.625Z,98077.97
2022-11-17T12:06:22.499Z,98074.69
2022-11-17T12:09:06.338Z,98062.00
2022-11-17T12:11:34.825Z,98072.34
2022-11-17T12:14:05.608Z,98082.72
2022-11-17T12:16:36.965Z,98074.72
2022-11-17T12:19:42.315Z,98055.78
2022-11-17T12:22:18.978Z,98071.50
2022-11-17T12:24:46.244Z,98077.59
2022-11-17T12:27:31.924Z,98083.75
2022-11-17T12:29:59.163Z,98083.06
2022-11-17T12:32:44.066Z,98069.25
2022-11-17T12:35:27.681Z,98068.38
2022-11-17T12:38:13.056Z,98069.19
2022-11-17T12:40:39.999Z,98078.88
2022-11-17T12:43:16.020Z,98079.78
2022-11-17T12:45:58.351Z,98047.16
2022-11-17T12:48:35.465Z,98069.78
2022-11-17T12:51:16.631Z,98056.72
2022-11-17T12:54:14.667Z,98044.13
2022-11-17T12:56:50.415Z,98046.28
2022-11-17T12:59:26.834Z,98056.97
2022-11-17T13:02:25.612Z,98069.28
2022-11-17T13:05:01.106Z,98063.47
2022-11-17T13:07:28.212Z,98053.50
2022-11-17T13:09:57.599Z,98048.75
2022-11-17T13:12:31.986Z,98040.09
2022-11-17T13:15:04.901Z,98046.56
2022-11-17T13:17:35.105Z,98041.75
2022-11-17T13:20:29.087Z,98035.19
2022-11-17T13:23:03.925Z,98045.63
2022-11-17T13:25:30.891Z,98042.69
2022-11-17T13:28:04.216Z,98032.03
2022-11-17T13:30:33.519Z,98037.78
2022-11-17T13:33:02.673Z,98040.19
2022-11-17T13:35:32.405Z,98041.53
2022-11-17T13:38:13.747Z,98028.00
2022-11-17T13:40:43.167Z,98022.44
2022-11-17T13:43:37.453Z,98033.06
2022-11-17T13:46:05.106Z,98039.00
2022-11-17T13:48:32.884Z,98022.44
2022-11-17T13:51:27.110Z,98033.44
2022-11-17T13:53:53.970Z,98040.25
2022-11-17T13:56:41.156Z,98016.91
2022-11-17T13:59:25.389Z,98023.94
2022-11-17T14:02:17.017Z,98021.59
2022-11-17T14:05:12.113Z,98011.13
2022-11-17T14:07:40.528Z,98014.94
2022-11-17T14:10:22.685Z,98022.63
2022-11-17T14:13:08.843Z,98002.91
2022-11-17T14:15:39.833Z,98016.00
2022-11-17T14:18:35.964Z,98000.09
2022-11-17T14:21:09.404Z,98011.59
2022-11-17T14:23:36.708Z,97995.97
2022-11-17T14:26:04.095Z,98000.09
2022-11-17T14:28:31.022Z,98007.66
2022-11-17T14:30:58.494Z,98015.34
2022-11-17T14:33:25.697Z,97959.50
2022-11-17T14:35:58.290Z,97986.09
2022-11-17T14:38:25.638Z,98016.50
2022-11-17T14:40:53.752Z,97974.53
2022-11-17T14:43:21.791Z,97985.81
2022-11-17T14:45:50.078Z,97976.78
2022-11-17T14:48:19.323Z,97985.81
2022-11-17T14:50:47.515Z,97993.19
2022-11-17T14:53:14.718Z,98008.69
2022-11-17T14:55:41.665Z,97995.56
2022-11-17T14:58:08.626Z,97985.28
2022-11-17T15:00:35.511Z,97989.09
2022-11-17T15:03:02.526Z,97989.63
2022-11-17T15:05:29.551Z,97989.28
2022-11-17T15:07:56.887Z,97987.03
2022-11-17T15:10:23.770Z,97987.25
2022-11-17T15:12:50.874Z,97953.25
2022-11-17T15:15:17.903Z,98007.72
2022-11-17T15:17:45.067Z,97985.34
2022-11-17T15:20:12.363Z,97985.06
2022-11-17T15:22:39.470Z,97982.09
2022-11-17T15:25:07.183Z,97972.78
2022-11-17T15:27:34.168Z,97959.22
2022-11-17T15:30:01.134Z,97963.19
2022-11-17T15:32:28.013Z,97966.63
2022-11-17T15:34:54.934Z,97966.78
2022-11-17T15:37:21.880Z,97952.56
2022-11-17T15:39:48.961Z,97985.69
2022-11-17T15:42:15.927Z,97958.41
2022-11-17T15:44:42.741Z,97962.91
2022-11-17T15:47:09.545Z,97943.34
2022-11-17T15:49:36.550Z,97958.75
2022-11-17T15:52:03.558Z,97950.88
2022-11-17T15:54:30.664Z,97946.72
2022-11-17T15:56:57.777Z,97952.38
2022-11-17T15:59:24.754Z,97959.91
2022-11-17T16:01:51.677Z,97956.72
2022-11-17T16:04:18.665Z,97928.78
2022-11-17T16:06:46.375Z,97933.09
2022-11-17T16:09:14.826Z,97929.72
2022-11-17T16:11:42.198Z,97857.31
2022-11-17T16:14:09.265Z,97913.06
2022-11-17T16:16:38.510Z,97920.59
2022-11-17T16:19:06.377Z,97925.56
2022-11-17T16:21:33.350Z,97923.13
2022-11-17T16:24:00.565Z,97935.50
2022-11-17T16:26:28.854Z,97901.56
2022-11-17T16:29:00.570Z,97924.06
2022-11-17T16:31:30.388Z,97921.34
2022-11-17T16:34:01.466Z,97939.16
2022-11-17T16:36:36.296Z,97922.69
2022-11-17T16:39:06.364Z,97920.94
2022-11-17T16:41:36.197Z,97926.72
2022-11-17T16:44:07.854Z,97922.66
2022-11-17T16:46:35.336Z,97888.88
2022-11-17T16:49:07.171Z,97919.16
2022-11-17T16:51:34.613Z,97925.16
2022-11-17T16:54:04.252Z,97919.97
2022-11-17T16:56:32.732Z,97912.94
2022-11-17T16:58:59.863Z,97906.63
2022-11-17T17:01:29.340Z,97903.84
2022-11-17T17:03:57.573Z,97901.03
2022-11-17T17:06:25.174Z,97896.56
2022-11-17T17:09:04.521Z,97888.22
2022-11-17T17:11:32.933Z,97886.94
2022-11-17T17:14:01.530Z,97894.69
2022-11-17T17:18:58.316Z,97890.38
2022-11-17T17:21:29.173Z,97879.56
2022-11-17T17:23:57.146Z,97905.09
2022-11-17T17:26:26.283Z,97880.56
2022-11-17T17:28:56.296Z,97869.75
2022-11-17T17:31:24.800Z,97860.22
2022-11-17T17:33:54.378Z,97877.38
2022-11-17T17:36:24.404Z,97868.41
2022-11-17T17:38:56.107Z,97875.19
2022-11-17T17:41:27.585Z,97903.00
2022-11-17T17:43:57.319Z,97895.00
2022-11-17T17:46:25.679Z,97892.94
2022-11-17T17:48:52.791Z,97892.19
2022-11-17T17:51:21.409Z,97874.53
2022-11-17T17:53:48.358Z,97875.13
2022-11-17T17:56:15.984Z,97870.38
2022-11-17T17:58:43.094Z,97858.94
2022-11-17T18:01:13.144Z,97864.53
2022-11-17T18:03:41.808Z,97863.84
2022-11-17T18:06:10.170Z,97867.13
2022-11-17T18:08:37.434Z,97879.53
2022-11-17T18:11:07.911Z,97868.34
2022-11-17T18:13:37.583Z,97842.31
2022-11-17T18:16:06.466Z,97871.78
2022-11-17T18:18:34.425Z,97868.06
2022-11-17T18:21:03.511Z,97878.53
2022-11-17T18:23:31.908Z,97867.13
2022-11-17T18:25:58.865Z,97862.56
2022-11-17T18:28:25.809Z,97861.81
2022-11-17T18:30:52.756Z,97854.72
2022-11-17T18:33:19.759Z,97866.56
2022-11-17T18:35:46.894Z,97835.44
2022-11-17T18:38:13.776Z,97875.94
2022-11-17T18:40:40.815Z,97868.88
2022-11-17T18:43:08.829Z,97873.34
2022-11-17T18:45:39.406Z,97874.16
2022-11-17T18:48:06.436Z,97885.53
2022-11-17T18:50:33.311Z,97855.16
2022-11-17T18:53:00.164Z,97852.03
2022-11-17T18:55:27.138Z,97837.34
2022-11-17T18:57:55.711Z,97850.94
2022-11-17T19:00:22.574Z,97856.84
2022-11-17T19:02:49.507Z,97853.94
2022-11-17T19:05:16.431Z,97865.31
2022-11-17T19:07:43.419Z,97843.34
2022-11-17T19:10:10.589Z,97843.63
2022-11-17T19:12:37.472Z,97848.56
2022-11-17T19:15:04.727Z,97846.31
2022-11-17T19:17:31.616Z,97839.50
2022-11-17T19:19:58.489Z,97834.56
2022-11-17T19:22:25.400Z,97840.31
2022-11-17T19:24:52.281Z,97850.38
2022-11-17T19:27:19.147Z,97833.41
2022-11-17T19:29:46.020Z,97851.88
2022-11-17T19:32:12.921Z,97827.22
2022-11-17T19:34:39.760Z,97852.41
2022-11-17T19:37:06.628Z,97837.91
2022-11-17T19:39:33.666Z,97820.38
2022-11-17T19:42:00.516Z,97847.72
2022-11-17T19:44:28.592Z,97819.66
2022-11-17T19:46:55.500Z,97828.41
2022-11-17T19:49:22.411Z,97840.34
2022-11-17T19:51:49.276Z,97817.44
2022-11-17T19:54:16.183Z,97840.06
2022-11-17T19:56:43.085Z,97848.22
2022-11-17T19:59:15.524Z,97842.50
2022-11-17T20:01:43.468Z,97839.31
2022-11-17T20:04:10.425Z,97814.25
2022-11-17T20:06:38.682Z,97808.69
2022-11-17T20:09:12.068Z,97819.38
2022-11-17T20:11:40.170Z,97828.78
2022-11-17T20:14:07.267Z,97782.97
2022-11-17T20:16:34.592Z,97783.22
2022-11-17T20:19:02.641Z,97786.00
2022-11-17T20:21:30.566Z,97810.63
2022-11-17T20:23:58.403Z,97781.88
2022-11-17T20:26:28.231Z,97796.56
2022-11-17T20:28:55.198Z,97783.09
2022-11-17T20:31:24.538Z,97767.63
2022-11-17T20:33:52.305Z,97794.72
2022-11-17T20:36:21.425Z,97812.88
2022-11-17T20:39:02.220Z,97790.38
2022-11-17T20:41:29.626Z,97791.13
2022-11-17T20:43:58.382Z,97787.97
2022-11-17T20:46:25.934Z,97790.09
2022-11-17T20:48:52.853Z,97818.41
2022-11-17T20:51:21.719Z,97783.31
2022-11-17T20:53:48.633Z,97785.44
2022-11-17T20:56:16.163Z,97825.06
2022-11-17T20:58:43.403Z,97816.28
2022-11-17T21:01:16.411Z,97810.22
2022-11-17T21:03:44.026Z,97826.97
2022-11-17T21:06:11.655Z,97797.38
2022-11-17T21:08:41.005Z,97810.00
2022-11-17T21:11:11.270Z,97775.22
2022-11-17T21:13:38.367Z,97783.13
2022-11-17T21:16:15.436Z,97808.00
2022-11-17T21:18:47.406Z,97804.00
2022-11-17T21:21:15.628Z,97815.09
2022-11-17T21:23:43.789Z,97780.56
2022-11-17T21:26:14.171Z,97781.53
2022-11-17T21:28:41.276Z,97775.50
2022-11-17T21:31:11.889Z,97780.09
2022-11-17T21:33:39.671Z,97780.25
2022-11-17T21:36:12.457Z,97776.53
2022-11-17T21:38:39.465Z,97775.09
2022-11-17T21:41:12.203Z,97775.00
2022-11-17T21:43:40.665Z,97774.13
2022-11-17T21:46:10.155Z,97781.19
2022-11-17T21:48:37.616Z,97766.56
2022-11-17T21:51:06.014Z,97793.31
2022-11-17T21:53:33.098Z,97769.97
2022-11-17T21:56:01.597Z,97759.34
2022-11-17T21:58:28.720Z,97774.56
2022-11-17T22:00:56.057Z,97765.09
2022-11-17T22:03:23.423Z,97790.72
2022-11-17T22:05:52.357Z,97784.44
2022-11-17T22:08:19.631Z,97802.91
2022-11-17T22:10:46.536Z,97796.84
2022-11-17T22:13:13.508Z,97803.34
2022-11-17T22:15:40.440Z,97798.78
2022-11-17T22:18:07.701Z,97782.09
2022-11-17T22:20:34.525Z,97807.56
2022-11-17T22:23:01.571Z,97805.56
2022-11-17T22:25:44.633Z,97808.00
2022-11-17T22:28:12.403Z,97783.97
2022-11-17T22:30:39.367Z,97786.84
2022-11-17T22:33:06.607Z,97793.72
2022-11-17T22:35:33.464Z,97791.56
2022-11-17T22:38:00.411Z,97777.94
2022-11-17T22:40:27.275Z,97785.59
2022-11-17T22:42:54.167Z,97771.47
2022-11-17T22:45:21.016Z,97772.84
2022-11-17T22:47:47.948Z,97800.19
2022-11-17T22:50:14.891Z,97782.66
2022-11-17T22:52:41.857Z,97744.50
2022-11-17T22:55:08.958Z,97770.97
2022-11-17T22:57:35.924Z,97766.34
2022-11-17T23:00:03.006Z,97775.81
2022-11-17T23:02:29.907Z,97771.16
2022-11-17T23:04:56.759Z,97776.94
2022-11-17T23:07:23.811Z,97785.88
2022-11-17T23:09:50.713Z,97779.91
2022-11-17T23:12:17.650Z,97768.34
2022-11-17T23:14:44.519Z,97765.69
2022-11-17T23:17:11.534Z,97764.19
2022-11-17T23:19:38.394Z,97767.56
2022-11-17T23:22:05.407Z,97764.19
2022-11-17T23:24:32.259Z,97767.72
2022-11-17T23:26:59.256Z,97773.00
2022-11-17T23:29:26.195Z,97752.81
2022-11-17T23:31:53.109Z,97758.31
2022-11-17T23:34:19.938Z,97776.63
2022-11-17T23:36:46.863Z,97781.94
2022-11-17T23:39:13.724Z,97746.88
2022-11-17T23:41:40.650Z,97755.41
2022-11-17T23:44:07.483Z,97775.38
2022-11-17T23:46:34.543Z,97757.41
2022-11-17T23:49:01.563Z,97775.22
2022-11-17T23:51:28.536Z,97744.31
2022-11-17T23:53:58.304Z,97751.81
2022-11-17T23:56:25.315Z,97746.69
2022-11-17T23:58:52.508Z,97729.94
